sensor_id;sensor_type;location;lat;lon;timestamp;P1;durP1;ratioP1;P2;durP2;ratioP2
15913;SDS011;8055;51.930;8.840;2022-10-16T00:01:18;6.70;;;3.30;;
15913;SDS011;8055;51.930;8.840;2022-10-16T00:03:46;6.72;;;2.97;;
15913;SDS011;8055;51.930;8.840;2022-10-16T00:06:13;9.45;;;3.33;;
15913;SDS011;8055;51.930;8.840;2022-10-16T00:08:40;6.22;;;3.63;;
15913;SDS011;8055;51.930;8.840;2022-10-16T00:11:15;5.70;;;2.75;;
15913;SDS011;8055;51.930;8.840;2022-10-16T00:13:45;5.68;;;2.78;;
15913;SDS011;8055;51.930;8.840;2022-10-16T00:16:11;6.03;;;2.88;;
15913;SDS011;8055;51.930;8.840;2022-10-16T00:18:37;4.75;;;2.50;;
15913;SDS011;8055;51.930;8.840;2022-10-16T00:21:07;8.02;;;3.20;;
15913;SDS011;8055;51.930;8.840;2022-10-16T00:23:54;6.90;;;3.20;;
15913;SDS011;8055;51.930;8.840;2022-10-16T00:26:21;8.85;;;3.10;;
15913;SDS011;8055;51.930;8.840;2022-10-16T00:28:48;5.18;;;2.97;;
15913;SDS011;8055;51.930;8.840;2022-10-16T00:31:14;8.10;;;3.15;;
15913;SDS011;8055;51.930;8.840;2022-10-16T00:33:41;6.95;;;2.88;;
15913;SDS011;8055;51.930;8.840;2022-10-16T00:36:07;5.32;;;3.25;;
15913;SDS011;8055;51.930;8.840;2022-10-16T00:38:35;5.13;;;2.90;;
15913;SDS011;8055;51.930;8.840;2022-10-16T00:41:02;4.30;;;2.92;;
15913;SDS011;8055;51.930;8.840;2022-10-16T00:48:45;7.55;;;2.80;;
15913;SDS011;8055;51.930;8.840;2022-10-16T00:51:15;5.75;;;2.95;;
15913;SDS011;8055;51.930;8.840;2022-10-16T00:53:44;5.68;;;2.65;;
15913;SDS011;8055;51.930;8.840;2022-10-16T00:56:10;7.72;;;3.05;;
15913;SDS011;8055;51.930;8.840;2022-10-16T00:58:36;4.43;;;2.80;;
15913;SDS011;8055;51.930;8.840;2022-10-16T01:01:01;8.60;;;3.50;;
15913;SDS011;8055;51.930;8.840;2022-10-16T01:03:29;8.18;;;3.25;;
15913;SDS011;8055;51.930;8.840;2022-10-16T01:06:04;10.38;;;2.88;;
15913;SDS011;8055;51.930;8.840;2022-10-16T01:09:29;6.10;;;3.00;;
15913;SDS011;8055;51.930;8.840;2022-10-16T01:11:39;7.57;;;3.28;;
15913;SDS011;8055;51.930;8.840;2022-10-16T01:14:32;4.50;;;2.75;;
15913;SDS011;8055;51.930;8.840;2022-10-16T01:17:12;4.25;;;2.80;;
15913;SDS011;8055;51.930;8.840;2022-10-16T01:19:56;6.10;;;2.75;;
15913;SDS011;8055;51.930;8.840;2022-10-16T01:22:43;5.30;;;2.70;;
15913;SDS011;8055;51.930;8.840;2022-10-16T01:25:17;9.15;;;2.92;;
15913;SDS011;8055;51.930;8.840;2022-10-16T01:27:50;5.50;;;2.80;;
15913;SDS011;8055;51.930;8.840;2022-10-16T01:30:26;5.25;;;2.42;;
15913;SDS011;8055;51.930;8.840;2022-10-16T01:33:01;5.03;;;2.22;;
15913;SDS011;8055;51.930;8.840;2022-10-16T01:35:32;9.15;;;2.90;;
15913;SDS011;8055;51.930;8.840;2022-10-16T01:38:05;4.22;;;2.45;;
15913;SDS011;8055;51.930;8.840;2022-10-16T01:40:35;5.05;;;2.70;;
15913;SDS011;8055;51.930;8.840;2022-10-16T01:43:07;6.45;;;2.50;;
15913;SDS011;8055;51.930;8.840;2022-10-16T01:45:38;7.95;;;2.95;;
15913;SDS011;8055;51.930;8.840;2022-10-16T01:48:06;7.40;;;3.20;;
15913;SDS011;8055;51.930;8.840;2022-10-16T01:50:35;8.10;;;3.13;;
15913;SDS011;8055;51.930;8.840;2022-10-16T01:53:05;5.93;;;2.95;;
15913;SDS011;8055;51.930;8.840;2022-10-16T01:55:35;6.90;;;2.83;;
15913;SDS011;8055;51.930;8.840;2022-10-16T01:58:03;9.20;;;2.95;;
15913;SDS011;8055;51.930;8.840;2022-10-16T02:00:32;4.10;;;2.78;;
15913;SDS011;8055;51.930;8.840;2022-10-16T02:02:57;6.63;;;2.60;;
15913;SDS011;8055;51.930;8.840;2022-10-16T02:08:10;5.90;;;2.80;;
15913;SDS011;8055;51.930;8.840;2022-10-16T02:10:35;7.13;;;2.88;;
15913;SDS011;8055;51.930;8.840;2022-10-16T02:13:06;5.18;;;2.80;;
15913;SDS011;8055;51.930;8.840;2022-10-16T02:15:36;4.95;;;2.58;;
15913;SDS011;8055;51.930;8.840;2022-10-16T02:18:02;5.13;;;2.63;;
15913;SDS011;8055;51.930;8.840;2022-10-16T02:20:31;5.07;;;2.60;;
15913;SDS011;8055;51.930;8.840;2022-10-16T02:23:01;5.38;;;2.40;;
15913;SDS011;8055;51.930;8.840;2022-10-16T02:25:32;4.95;;;2.65;;
15913;SDS011;8055;51.930;8.840;2022-10-16T02:28:03;5.15;;;2.78;;
15913;SDS011;8055;51.930;8.840;2022-10-16T02:33:02;5.10;;;2.22;;
15913;SDS011;8055;51.930;8.840;2022-10-16T02:35:30;4.32;;;2.65;;
15913;SDS011;8055;51.930;8.840;2022-10-16T02:37:56;4.95;;;2.20;;
15913;SDS011;8055;51.930;8.840;2022-10-16T02:40:23;3.95;;;2.42;;
15913;SDS011;8055;51.930;8.840;2022-10-16T02:42:52;5.72;;;2.60;;
15913;SDS011;8055;51.930;8.840;2022-10-16T02:45:19;2.70;;;2.35;;
15913;SDS011;8055;51.930;8.840;2022-10-16T02:47:45;6.63;;;2.42;;
15913;SDS011;8055;51.930;8.840;2022-10-16T02:50:11;5.75;;;2.40;;
15913;SDS011;8055;51.930;8.840;2022-10-16T02:52:36;7.32;;;2.83;;
15913;SDS011;8055;51.930;8.840;2022-10-16T02:55:01;6.50;;;2.25;;
15913;SDS011;8055;51.930;8.840;2022-10-16T02:57:27;9.52;;;3.25;;
15913;SDS011;8055;51.930;8.840;2022-10-16T02:59:52;4.53;;;2.17;;
15913;SDS011;8055;51.930;8.840;2022-10-16T03:02:18;7.13;;;2.45;;
15913;SDS011;8055;51.930;8.840;2022-10-16T03:04:44;6.13;;;2.00;;
15913;SDS011;8055;51.930;8.840;2022-10-16T03:07:09;4.82;;;2.00;;
15913;SDS011;8055;51.930;8.840;2022-10-16T03:09:34;5.22;;;1.95;;
15913;SDS011;8055;51.930;8.840;2022-10-16T03:12:00;7.25;;;2.10;;
15913;SDS011;8055;51.930;8.840;2022-10-16T03:14:25;5.32;;;1.83;;
15913;SDS011;8055;51.930;8.840;2022-10-16T03:16:50;2.65;;;1.98;;
15913;SDS011;8055;51.930;8.840;2022-10-16T03:19:16;4.72;;;1.90;;
15913;SDS011;8055;51.930;8.840;2022-10-16T03:21:42;5.47;;;2.08;;
15913;SDS011;8055;51.930;8.840;2022-10-16T03:24:08;5.30;;;1.70;;
15913;SDS011;8055;51.930;8.840;2022-10-16T03:26:33;2.88;;;1.98;;
15913;SDS011;8055;51.930;8.840;2022-10-16T03:28:59;4.10;;;1.55;;
15913;SDS011;8055;51.930;8.840;2022-10-16T03:31:24;3.92;;;1.65;;
15913;SDS011;8055;51.930;8.840;2022-10-16T03:33:49;5.35;;;1.70;;
15913;SDS011;8055;51.930;8.840;2022-10-16T03:36:15;2.55;;;1.63;;
15913;SDS011;8055;51.930;8.840;2022-10-16T03:38:40;6.22;;;1.30;;
15913;SDS011;8055;51.930;8.840;2022-10-16T03:41:05;2.72;;;1.48;;
15913;SDS011;8055;51.930;8.840;2022-10-16T03:43:32;5.80;;;1.65;;
15913;SDS011;8055;51.930;8.840;2022-10-16T03:45:58;4.65;;;1.58;;
15913;SDS011;8055;51.930;8.840;2022-10-16T03:48:23;4.25;;;1.45;;
15913;SDS011;8055;51.930;8.840;2022-10-16T03:50:49;3.85;;;1.70;;
15913;SDS011;8055;51.930;8.840;2022-10-16T03:53:15;4.03;;;1.40;;
15913;SDS011;8055;51.930;8.840;2022-10-16T03:55:41;2.92;;;1.60;;
15913;SDS011;8055;51.930;8.840;2022-10-16T03:58:07;2.75;;;1.50;;
15913;SDS011;8055;51.930;8.840;2022-10-16T04:00:32;4.78;;;1.50;;
15913;SDS011;8055;51.930;8.840;2022-10-16T04:02:58;3.30;;;1.42;;
15913;SDS011;8055;51.930;8.840;2022-10-16T04:05:23;3.47;;;1.48;;
15913;SDS011;8055;51.930;8.840;2022-10-16T04:07:49;3.22;;;1.30;;
15913;SDS011;8055;51.930;8.840;2022-10-16T04:10:14;1.55;;;1.30;;
15913;SDS011;8055;51.930;8.840;2022-10-16T04:12:39;5.38;;;1.45;;
15913;SDS011;8055;51.930;8.840;2022-10-16T04:15:05;4.63;;;1.50;;
15913;SDS011;8055;51.930;8.840;2022-10-16T04:17:30;3.53;;;1.30;;
15913;SDS011;8055;51.930;8.840;2022-10-16T04:19:56;3.05;;;1.50;;
15913;SDS011;8055;51.930;8.840;2022-10-16T04:22:21;3.00;;;1.42;;
15913;SDS011;8055;51.930;8.840;2022-10-16T04:24:46;4.47;;;1.58;;
15913;SDS011;8055;51.930;8.840;2022-10-16T04:27:12;2.90;;;1.55;;
15913;SDS011;8055;51.930;8.840;2022-10-16T04:29:37;2.97;;;1.60;;
15913;SDS011;8055;51.930;8.840;2022-10-16T04:32:02;4.40;;;1.20;;
15913;SDS011;8055;51.930;8.840;2022-10-16T04:34:28;1.90;;;1.35;;
15913;SDS011;8055;51.930;8.840;2022-10-16T04:36:53;3.47;;;1.60;;
15913;SDS011;8055;51.930;8.840;2022-10-16T04:39:19;3.53;;;1.40;;
15913;SDS011;8055;51.930;8.840;2022-10-16T04:41:44;3.38;;;1.45;;
15913;SDS011;8055;51.930;8.840;2022-10-16T04:44:09;2.58;;;1.20;;
15913;SDS011;8055;51.930;8.840;2022-10-16T04:46:35;4.55;;;1.48;;
15913;SDS011;8055;51.930;8.840;2022-10-16T04:49:00;2.97;;;1.40;;
15913;SDS011;8055;51.930;8.840;2022-10-16T04:51:26;5.10;;;1.50;;
15913;SDS011;8055;51.930;8.840;2022-10-16T04:53:52;3.75;;;1.40;;
15913;SDS011;8055;51.930;8.840;2022-10-16T04:56:18;2.25;;;1.52;;
15913;SDS011;8055;51.930;8.840;2022-10-16T04:58:43;1.65;;;1.25;;
15913;SDS011;8055;51.930;8.840;2022-10-16T05:01:09;3.83;;;1.50;;
15913;SDS011;8055;51.930;8.840;2022-10-16T05:03:34;4.20;;;1.40;;
15913;SDS011;8055;51.930;8.840;2022-10-16T05:06:00;2.65;;;1.35;;
15913;SDS011;8055;51.930;8.840;2022-10-16T05:08:25;2.83;;;1.20;;
15913;SDS011;8055;51.930;8.840;2022-10-16T05:10:50;2.75;;;1.20;;
15913;SDS011;8055;51.930;8.840;2022-10-16T05:13:16;2.00;;;1.35;;
15913;SDS011;8055;51.930;8.840;2022-10-16T05:15:41;3.05;;;1.25;;
15913;SDS011;8055;51.930;8.840;2022-10-16T05:18:08;5.15;;;1.40;;
15913;SDS011;8055;51.930;8.840;2022-10-16T05:20:33;4.70;;;1.63;;
15913;SDS011;8055;51.930;8.840;2022-10-16T05:22:59;4.65;;;1.50;;
15913;SDS011;8055;51.930;8.840;2022-10-16T05:25:24;2.95;;;1.25;;
15913;SDS011;8055;51.930;8.840;2022-10-16T05:27:50;2.60;;;1.30;;
15913;SDS011;8055;51.930;8.840;2022-10-16T05:30:16;3.08;;;1.20;;
15913;SDS011;8055;51.930;8.840;2022-10-16T05:32:45;1.27;;;1.17;;
15913;SDS011;8055;51.930;8.840;2022-10-16T05:35:12;1.33;;;1.20;;
15913;SDS011;8055;51.930;8.840;2022-10-16T05:37:38;1.75;;;1.00;;
15913;SDS011;8055;51.930;8.840;2022-10-16T05:40:03;1.63;;;1.10;;
15913;SDS011;8055;51.930;8.840;2022-10-16T05:42:30;3.13;;;1.00;;
15913;SDS011;8055;51.930;8.840;2022-10-16T05:44:55;3.22;;;1.13;;
15913;SDS011;8055;51.930;8.840;2022-10-16T05:47:21;3.53;;;1.42;;
15913;SDS011;8055;51.930;8.840;2022-10-16T05:49:46;2.70;;;1.20;;
15913;SDS011;8055;51.930;8.840;2022-10-16T05:52:11;1.77;;;1.20;;
15913;SDS011;8055;51.930;8.840;2022-10-16T05:54:37;2.30;;;1.10;;
15913;SDS011;8055;51.930;8.840;2022-10-16T05:57:02;2.55;;;1.13;;
15913;SDS011;8055;51.930;8.840;2022-10-16T05:59:27;0.85;;;0.80;;
15913;SDS011;8055;51.930;8.840;2022-10-16T06:01:53;3.28;;;1.10;;
15913;SDS011;8055;51.930;8.840;2022-10-16T06:04:18;1.67;;;1.00;;
15913;SDS011;8055;51.930;8.840;2022-10-16T06:06:44;1.95;;;1.10;;
15913;SDS011;8055;51.930;8.840;2022-10-16T06:09:09;3.88;;;1.10;;
15913;SDS011;8055;51.930;8.840;2022-10-16T06:11:34;2.28;;;1.23;;
15913;SDS011;8055;51.930;8.840;2022-10-16T06:14:01;1.38;;;1.20;;
15913;SDS011;8055;51.930;8.840;2022-10-16T06:16:31;1.40;;;0.90;;
15913;SDS011;8055;51.930;8.840;2022-10-16T06:18:57;1.27;;;0.90;;
15913;SDS011;8055;51.930;8.840;2022-10-16T06:21:24;1.75;;;1.15;;
15913;SDS011;8055;51.930;8.840;2022-10-16T06:23:51;2.10;;;0.93;;
15913;SDS011;8055;51.930;8.840;2022-10-16T06:26:18;2.38;;;0.93;;
15913;SDS011;8055;51.930;8.840;2022-10-16T06:28:45;3.15;;;1.05;;
15913;SDS011;8055;51.930;8.840;2022-10-16T06:31:11;1.33;;;0.90;;
15913;SDS011;8055;51.930;8.840;2022-10-16T06:33:37;3.30;;;1.02;;
15913;SDS011;8055;51.930;8.840;2022-10-16T06:36:04;2.75;;;1.23;;
15913;SDS011;8055;51.930;8.840;2022-10-16T06:38:32;1.80;;;0.90;;
15913;SDS011;8055;51.930;8.840;2022-10-16T06:40:58;1.35;;;1.10;;
15913;SDS011;8055;51.930;8.840;2022-10-16T06:43:23;3.97;;;1.15;;
15913;SDS011;8055;51.930;8.840;2022-10-16T06:45:53;2.03;;;1.08;;
15913;SDS011;8055;51.930;8.840;2022-10-16T06:48:19;1.67;;;1.20;;
15913;SDS011;8055;51.930;8.840;2022-10-16T06:50:54;1.58;;;1.00;;
15913;SDS011;8055;51.930;8.840;2022-10-16T06:53:28;0.82;;;0.82;;
15913;SDS011;8055;51.930;8.840;2022-10-16T06:55:55;1.90;;;0.80;;
15913;SDS011;8055;51.930;8.840;2022-10-16T06:58:21;2.95;;;1.00;;
15913;SDS011;8055;51.930;8.840;2022-10-16T07:00:47;3.33;;;1.10;;
15913;SDS011;8055;51.930;8.840;2022-10-16T07:03:13;1.77;;;0.90;;
15913;SDS011;8055;51.930;8.840;2022-10-16T07:05:39;3.38;;;1.00;;
15913;SDS011;8055;51.930;8.840;2022-10-16T07:08:05;2.20;;;1.00;;
15913;SDS011;8055;51.930;8.840;2022-10-16T07:10:31;4.35;;;1.20;;
15913;SDS011;8055;51.930;8.840;2022-10-16T07:12:57;1.02;;;0.93;;
15913;SDS011;8055;51.930;8.840;2022-10-16T07:15:23;1.70;;;1.10;;
15913;SDS011;8055;51.930;8.840;2022-10-16T07:17:49;1.38;;;0.90;;
15913;SDS011;8055;51.930;8.840;2022-10-16T07:20:15;1.02;;;0.93;;
15913;SDS011;8055;51.930;8.840;2022-10-16T07:22:40;2.53;;;0.95;;
15913;SDS011;8055;51.930;8.840;2022-10-16T07:25:06;1.75;;;0.82;;
15913;SDS011;8055;51.930;8.840;2022-10-16T07:27:31;2.45;;;1.02;;
15913;SDS011;8055;51.930;8.840;2022-10-16T07:29:57;1.52;;;0.90;;
15913;SDS011;8055;51.930;8.840;2022-10-16T07:32:22;4.15;;;1.20;;
15913;SDS011;8055;51.930;8.840;2022-10-16T07:34:48;1.92;;;1.00;;
15913;SDS011;8055;51.930;8.840;2022-10-16T07:37:14;2.55;;;1.08;;
15913;SDS011;8055;51.930;8.840;2022-10-16T07:39:39;3.38;;;1.10;;
15913;SDS011;8055;51.930;8.840;2022-10-16T07:42:04;2.22;;;0.90;;
15913;SDS011;8055;51.930;8.840;2022-10-16T07:44:30;1.20;;;1.10;;
15913;SDS011;8055;51.930;8.840;2022-10-16T07:46:55;1.85;;;1.27;;
15913;SDS011;8055;51.930;8.840;2022-10-16T07:49:21;3.15;;;1.20;;
15913;SDS011;8055;51.930;8.840;2022-10-16T07:51:46;1.50;;;1.02;;
15913;SDS011;8055;51.930;8.840;2022-10-16T07:54:11;3.38;;;1.20;;
15913;SDS011;8055;51.930;8.840;2022-10-16T07:56:37;2.42;;;1.00;;
15913;SDS011;8055;51.930;8.840;2022-10-16T07:59:02;4.38;;;1.02;;
15913;SDS011;8055;51.930;8.840;2022-10-16T08:01:28;1.05;;;0.93;;
15913;SDS011;8055;51.930;8.840;2022-10-16T08:03:53;1.92;;;1.20;;
15913;SDS011;8055;51.930;8.840;2022-10-16T08:06:19;1.63;;;1.10;;
15913;SDS011;8055;51.930;8.840;2022-10-16T08:08:45;5.53;;;1.02;;
15913;SDS011;8055;51.930;8.840;2022-10-16T08:11:11;4.00;;;1.10;;
15913;SDS011;8055;51.930;8.840;2022-10-16T08:13:36;3.58;;;1.48;;
15913;SDS011;8055;51.930;8.840;2022-10-16T08:16:02;2.17;;;1.30;;
15913;SDS011;8055;51.930;8.840;2022-10-16T08:18:32;1.65;;;1.05;;
15913;SDS011;8055;51.930;8.840;2022-10-16T08:21:00;1.95;;;1.25;;
15913;SDS011;8055;51.930;8.840;2022-10-16T08:23:25;3.10;;;1.25;;
15913;SDS011;8055;51.930;8.840;2022-10-16T08:25:52;2.50;;;1.13;;
15913;SDS011;8055;51.930;8.840;2022-10-16T08:28:18;4.82;;;1.27;;
15913;SDS011;8055;51.930;8.840;2022-10-16T08:30:44;2.20;;;1.00;;
15913;SDS011;8055;51.930;8.840;2022-10-16T08:33:10;3.45;;;1.10;;
15913;SDS011;8055;51.930;8.840;2022-10-16T08:35:35;1.70;;;0.98;;
15913;SDS011;8055;51.930;8.840;2022-10-16T08:38:04;2.22;;;1.10;;
15913;SDS011;8055;51.930;8.840;2022-10-16T08:40:32;4.97;;;1.70;;
15913;SDS011;8055;51.930;8.840;2022-10-16T08:48:17;2.50;;;1.27;;
15913;SDS011;8055;51.930;8.840;2022-10-16T08:50:44;3.35;;;1.20;;
15913;SDS011;8055;51.930;8.840;2022-10-16T08:53:15;2.15;;;0.98;;
15913;SDS011;8055;51.930;8.840;2022-10-16T08:55:52;2.20;;;1.20;;
15913;SDS011;8055;51.930;8.840;2022-10-16T08:58:22;3.60;;;1.10;;
15913;SDS011;8055;51.930;8.840;2022-10-16T09:00:54;4.00;;;1.10;;
15913;SDS011;8055;51.930;8.840;2022-10-16T09:08:48;2.55;;;0.85;;
15913;SDS011;8055;51.930;8.840;2022-10-16T09:23:01;3.85;;;1.40;;
15913;SDS011;8055;51.930;8.840;2022-10-16T09:25:37;1.95;;;1.30;;
15913;SDS011;8055;51.930;8.840;2022-10-16T09:28:07;4.18;;;1.23;;
15913;SDS011;8055;51.930;8.840;2022-10-16T09:30:33;1.65;;;1.10;;
15913;SDS011;8055;51.930;8.840;2022-10-16T09:32:58;1.50;;;1.00;;
15913;SDS011;8055;51.930;8.840;2022-10-16T09:35:31;3.30;;;1.38;;
15913;SDS011;8055;51.930;8.840;2022-10-16T09:38:00;2.65;;;1.10;;
15913;SDS011;8055;51.930;8.840;2022-10-16T09:40:30;1.27;;;0.85;;
15913;SDS011;8055;51.930;8.840;2022-10-16T09:46:07;3.30;;;0.80;;
15913;SDS011;8055;51.930;8.840;2022-10-16T09:48:49;1.98;;;1.10;;
15913;SDS011;8055;51.930;8.840;2022-10-16T09:51:30;2.22;;;1.02;;
15913;SDS011;8055;51.930;8.840;2022-10-16T09:56:35;2.47;;;1.00;;
15913;SDS011;8055;51.930;8.840;2022-10-16T09:59:14;3.28;;;1.00;;
15913;SDS011;8055;51.930;8.840;2022-10-16T10:01:45;2.28;;;0.95;;
15913;SDS011;8055;51.930;8.840;2022-10-16T10:04:13;3.35;;;0.88;;
15913;SDS011;8055;51.930;8.840;2022-10-16T10:06:43;2.83;;;1.05;;
15913;SDS011;8055;51.930;8.840;2022-10-16T10:11:53;3.80;;;0.80;;
15913;SDS011;8055;51.930;8.840;2022-10-16T10:14:38;3.92;;;1.00;;
15913;SDS011;8055;51.930;8.840;2022-10-16T10:17:15;5.00;;;0.80;;
15913;SDS011;8055;51.930;8.840;2022-10-16T10:22:30;0.70;;;0.60;;
15913;SDS011;8055;51.930;8.840;2022-10-16T10:30:18;3.65;;;1.23;;
15913;SDS011;8055;51.930;8.840;2022-10-16T10:35:54;2.95;;;0.95;;
15913;SDS011;8055;51.930;8.840;2022-10-16T10:46:26;2.97;;;1.00;;
15913;SDS011;8055;51.930;8.840;2022-10-16T10:54:41;1.73;;;0.95;;
15913;SDS011;8055;51.930;8.840;2022-10-16T10:57:36;5.65;;;0.90;;
15913;SDS011;8055;51.930;8.840;2022-10-16T11:00:30;3.60;;;1.13;;
15913;SDS011;8055;51.930;8.840;2022-10-16T11:05:45;3.25;;;0.80;;
15913;SDS011;8055;51.930;8.840;2022-10-16T11:08:38;3.10;;;1.13;;
15913;SDS011;8055;51.930;8.840;2022-10-16T11:11:14;1.95;;;0.85;;
15913;SDS011;8055;51.930;8.840;2022-10-16T11:16:18;3.40;;;0.88;;
15913;SDS011;8055;51.930;8.840;2022-10-16T11:21:43;1.65;;;0.80;;
15913;SDS011;8055;51.930;8.840;2022-10-16T11:24:19;3.83;;;0.80;;
15913;SDS011;8055;51.930;8.840;2022-10-16T11:26:54;3.00;;;0.90;;
15913;SDS011;8055;51.930;8.840;2022-10-16T11:29:25;3.92;;;0.70;;
15913;SDS011;8055;51.930;8.840;2022-10-16T11:31:58;2.38;;;0.85;;
15913;SDS011;8055;51.930;8.840;2022-10-16T11:34:32;2.75;;;0.68;;
15913;SDS011;8055;51.930;8.840;2022-10-16T11:37:20;1.75;;;0.73;;
15913;SDS011;8055;51.930;8.840;2022-10-16T11:39:50;1.02;;;0.70;;
15913;SDS011;8055;51.930;8.840;2022-10-16T11:42:23;1.55;;;0.70;;
15913;SDS011;8055;51.930;8.840;2022-10-16T11:47:40;2.33;;;0.88;;
15913;SDS011;8055;51.930;8.840;2022-10-16T11:50:20;3.60;;;0.70;;
15913;SDS011;8055;51.930;8.840;2022-10-16T11:55:40;1.63;;;0.60;;
15913;SDS011;8055;51.930;8.840;2022-10-16T11:58:12;3.60;;;0.82;;
15913;SDS011;8055;51.930;8.840;2022-10-16T12:00:44;5.45;;;1.02;;
15913;SDS011;8055;51.930;8.840;2022-10-16T12:03:20;1.02;;;0.90;;
15913;SDS011;8055;51.930;8.840;2022-10-16T12:08:48;3.85;;;0.80;;
15913;SDS011;8055;51.930;8.840;2022-10-16T12:11:30;2.38;;;0.75;;
15913;SDS011;8055;51.930;8.840;2022-10-16T12:19:31;3.17;;;0.70;;
15913;SDS011;8055;51.930;8.840;2022-10-16T12:21:58;4.38;;;0.60;;
15913;SDS011;8055;51.930;8.840;2022-10-16T12:27:52;1.55;;;0.65;;
15913;SDS011;8055;51.930;8.840;2022-10-16T12:29:55;3.50;;;0.52;;
15913;SDS011;8055;51.930;8.840;2022-10-16T12:32:35;3.25;;;0.68;;
15913;SDS011;8055;51.930;8.840;2022-10-16T12:35:04;3.47;;;0.88;;
15913;SDS011;8055;51.930;8.840;2022-10-16T12:37:41;1.88;;;0.50;;
15913;SDS011;8055;51.930;8.840;2022-10-16T12:40:13;3.08;;;0.80;;
15913;SDS011;8055;51.930;8.840;2022-10-16T12:42:48;4.07;;;0.65;;
15913;SDS011;8055;51.930;8.840;2022-10-16T12:45:23;4.15;;;0.77;;
15913;SDS011;8055;51.930;8.840;2022-10-16T12:47:57;2.50;;;0.80;;
15913;SDS011;8055;51.930;8.840;2022-10-16T12:50:29;1.67;;;0.52;;
15913;SDS011;8055;51.930;8.840;2022-10-16T12:52:59;2.80;;;0.70;;
15913;SDS011;8055;51.930;8.840;2022-10-16T12:55:26;3.20;;;0.57;;
15913;SDS011;8055;51.930;8.840;2022-10-16T12:58:16;2.67;;;0.57;;
15913;SDS011;8055;51.930;8.840;2022-10-16T13:03:43;2.10;;;0.57;;
15913;SDS011;8055;51.930;8.840;2022-10-16T13:09:02;1.13;;;0.60;;
15913;SDS011;8055;51.930;8.840;2022-10-16T13:22:35;5.28;;;0.60;;
15913;SDS011;8055;51.930;8.840;2022-10-16T13:28:19;1.15;;;0.60;;
15913;SDS011;8055;51.930;8.840;2022-10-16T13:30:51;0.68;;;0.50;;
15913;SDS011;8055;51.930;8.840;2022-10-16T13:33:30;2.38;;;0.60;;
15913;SDS011;8055;51.930;8.840;2022-10-16T13:38:28;3.15;;;0.70;;
15913;SDS011;8055;51.930;8.840;2022-10-16T13:40:59;2.33;;;0.93;;
15913;SDS011;8055;51.930;8.840;2022-10-16T13:43:45;1.77;;;0.57;;
15913;SDS011;8055;51.930;8.840;2022-10-16T13:46:18;2.78;;;0.93;;
15913;SDS011;8055;51.930;8.840;2022-10-16T13:48:55;1.70;;;0.45;;
15913;SDS011;8055;51.930;8.840;2022-10-16T13:51:26;3.92;;;0.60;;
15913;SDS011;8055;51.930;8.840;2022-10-16T13:53:54;1.83;;;0.70;;
15913;SDS011;8055;51.930;8.840;2022-10-16T13:56:21;2.00;;;0.60;;
15913;SDS011;8055;51.930;8.840;2022-10-16T13:59:01;3.28;;;0.70;;
15913;SDS011;8055;51.930;8.840;2022-10-16T14:01:28;2.65;;;0.60;;
15913;SDS011;8055;51.930;8.840;2022-10-16T14:04:03;2.25;;;0.70;;
15913;SDS011;8055;51.930;8.840;2022-10-16T14:06:31;1.55;;;0.60;;
15913;SDS011;8055;51.930;8.840;2022-10-16T14:09:04;2.15;;;0.88;;
15913;SDS011;8055;51.930;8.840;2022-10-16T14:11:32;1.55;;;0.63;;
15913;SDS011;8055;51.930;8.840;2022-10-16T14:13:59;1.00;;;0.43;;
15913;SDS011;8055;51.930;8.840;2022-10-16T14:16:27;2.33;;;0.50;;
15913;SDS011;8055;51.930;8.840;2022-10-16T14:18:56;1.27;;;0.50;;
15913;SDS011;8055;51.930;8.840;2022-10-16T14:21:24;3.30;;;0.60;;
15913;SDS011;8055;51.930;8.840;2022-10-16T14:23:51;2.30;;;0.70;;
15913;SDS011;8055;51.930;8.840;2022-10-16T14:26:18;1.95;;;0.70;;
15913;SDS011;8055;51.930;8.840;2022-10-16T14:28:47;2.90;;;0.63;;
15913;SDS011;8055;51.930;8.840;2022-10-16T14:31:23;1.05;;;0.52;;
15913;SDS011;8055;51.930;8.840;2022-10-16T14:33:51;1.85;;;0.73;;
15913;SDS011;8055;51.930;8.840;2022-10-16T14:36:16;1.60;;;0.77;;
15913;SDS011;8055;51.930;8.840;2022-10-16T14:39:00;1.05;;;0.60;;
15913;SDS011;8055;51.930;8.840;2022-10-16T14:41:31;4.30;;;0.70;;
15913;SDS011;8055;51.930;8.840;2022-10-16T14:44:02;3.10;;;2.42;;
15913;SDS011;8055;51.930;8.840;2022-10-16T14:46:30;3.65;;;0.80;;
15913;SDS011;8055;51.930;8.840;2022-10-16T14:49:00;6.18;;;4.20;;
15913;SDS011;8055;51.930;8.840;2022-10-16T14:51:29;5.85;;;2.58;;
15913;SDS011;8055;51.930;8.840;2022-10-16T14:53:55;4.45;;;1.27;;
15913;SDS011;8055;51.930;8.840;2022-10-16T14:56:24;1.27;;;0.63;;
15913;SDS011;8055;51.930;8.840;2022-10-16T14:58:53;2.85;;;0.60;;
15913;SDS011;8055;51.930;8.840;2022-10-16T15:01:20;2.17;;;0.65;;
15913;SDS011;8055;51.930;8.840;2022-10-16T15:03:45;3.10;;;0.70;;
15913;SDS011;8055;51.930;8.840;2022-10-16T15:06:11;2.63;;;1.10;;
15913;SDS011;8055;51.930;8.840;2022-10-16T15:08:38;2.83;;;0.88;;
15913;SDS011;8055;51.930;8.840;2022-10-16T15:11:04;4.05;;;1.90;;
15913;SDS011;8055;51.930;8.840;2022-10-16T15:13:30;3.15;;;0.80;;
15913;SDS011;8055;51.930;8.840;2022-10-16T15:15:56;3.28;;;1.50;;
15913;SDS011;8055;51.930;8.840;2022-10-16T15:18:21;6.22;;;2.70;;
15913;SDS011;8055;51.930;8.840;2022-10-16T15:20:50;7.63;;;2.67;;
15913;SDS011;8055;51.930;8.840;2022-10-16T15:23:17;2.35;;;1.38;;
15913;SDS011;8055;51.930;8.840;2022-10-16T15:25:51;3.88;;;1.10;;
15913;SDS011;8055;51.930;8.840;2022-10-16T15:28:18;1.88;;;0.93;;
15913;SDS011;8055;51.930;8.840;2022-10-16T15:30:45;3.15;;;1.40;;
15913;SDS011;8055;51.930;8.840;2022-10-16T15:33:13;5.88;;;1.23;;
15913;SDS011;8055;51.930;8.840;2022-10-16T15:35:42;5.00;;;1.33;;
15913;SDS011;8055;51.930;8.840;2022-10-16T15:38:11;4.53;;;1.40;;
15913;SDS011;8055;51.930;8.840;2022-10-16T15:40:38;4.03;;;1.02;;
15913;SDS011;8055;51.930;8.840;2022-10-16T15:43:03;2.83;;;1.20;;
15913;SDS011;8055;51.930;8.840;2022-10-16T15:45:29;3.15;;;0.98;;
15913;SDS011;8055;51.930;8.840;2022-10-16T15:47:54;2.78;;;0.95;;
15913;SDS011;8055;51.930;8.840;2022-10-16T15:50:19;1.88;;;0.90;;
15913;SDS011;8055;51.930;8.840;2022-10-16T15:52:45;5.68;;;1.38;;
15913;SDS011;8055;51.930;8.840;2022-10-16T15:55:11;4.15;;;1.20;;
15913;SDS011;8055;51.930;8.840;2022-10-16T15:57:39;4.50;;;1.20;;
15913;SDS011;8055;51.930;8.840;2022-10-16T16:00:08;1.92;;;1.20;;
15913;SDS011;8055;51.930;8.840;2022-10-16T16:02:36;1.83;;;1.10;;
15913;SDS011;8055;51.930;8.840;2022-10-16T16:05:01;5.32;;;1.30;;
15913;SDS011;8055;51.930;8.840;2022-10-16T16:07:28;7.75;;;1.40;;
15913;SDS011;8055;51.930;8.840;2022-10-16T16:09:56;7.90;;;1.58;;
15913;SDS011;8055;51.930;8.840;2022-10-16T16:12:22;3.97;;;1.40;;
15913;SDS011;8055;51.930;8.840;2022-10-16T16:14:47;2.42;;;1.50;;
15913;SDS011;8055;51.930;8.840;2022-10-16T16:17:14;4.93;;;1.80;;
15913;SDS011;8055;51.930;8.840;2022-10-16T16:19:39;6.32;;;2.55;;
15913;SDS011;8055;51.930;8.840;2022-10-16T16:22:05;6.15;;;2.25;;
15913;SDS011;8055;51.930;8.840;2022-10-16T16:24:30;5.72;;;2.90;;
15913;SDS011;8055;51.930;8.840;2022-10-16T16:26:56;6.47;;;3.28;;
15913;SDS011;8055;51.930;8.840;2022-10-16T16:29:21;4.55;;;2.55;;
15913;SDS011;8055;51.930;8.840;2022-10-16T16:31:47;7.50;;;2.30;;
15913;SDS011;8055;51.930;8.840;2022-10-16T16:34:13;5.22;;;2.20;;
15913;SDS011;8055;51.930;8.840;2022-10-16T16:36:38;9.85;;;2.30;;
15913;SDS011;8055;51.930;8.840;2022-10-16T16:39:05;4.40;;;2.10;;
15913;SDS011;8055;51.930;8.840;2022-10-16T16:41:30;3.08;;;1.90;;
15913;SDS011;8055;51.930;8.840;2022-10-16T16:44:02;4.22;;;2.33;;
15913;SDS011;8055;51.930;8.840;2022-10-16T16:46:30;5.88;;;1.83;;
15913;SDS011;8055;51.930;8.840;2022-10-16T16:48:57;7.72;;;2.00;;
15913;SDS011;8055;51.930;8.840;2022-10-16T16:51:23;7.25;;;1.50;;
15913;SDS011;8055;51.930;8.840;2022-10-16T16:53:50;3.38;;;1.70;;
15913;SDS011;8055;51.930;8.840;2022-10-16T16:56:17;3.25;;;1.42;;
15913;SDS011;8055;51.930;8.840;2022-10-16T16:58:46;8.55;;;2.40;;
15913;SDS011;8055;51.930;8.840;2022-10-16T17:01:12;2.97;;;1.30;;
15913;SDS011;8055;51.930;8.840;2022-10-16T17:03:38;7.03;;;1.88;;